Time;durP1;ratioP1;P1;durP2;ratioP2;P2;SDS_P1;SDS_P2;PMS_P1;PMS_P2;Temp;Humidity;BMP_temperature;BMP_pressure;BME280_temperature;BME280_humidity;BME280_pressure;Samples;Min_cycle;Max_cycle;Signal;HPM_P1;HPM_P2
2023/04/27 00:00:43;;;;;;;;;;;2.30;99.90;;;;;;5090382;28;19964;-79
2023/04/27 00:03:09;;;;;;;;;;;2.20;99.90;;;;;;5076031;28;19935;-79
2023/04/27 00:05:35;;;;;;;;;;;2.20;99.90;;;;;;5072520;28;20034;-79
2023/04/27 00:08:00;;;;;;;;;;;2.20;99.90;;;;;;5079318;28;19959;-79
2023/04/27 00:10:26;;;;;;;;;;;2.20;99.90;;;;;;5078894;28;19939;-79
2023/04/27 00:12:52;;;;;;;;;;;2.10;99.90;;;;;;5080356;28;19928;-79
2023/04/27 00:15:17;;;;;;;;;;;2.10;99.90;;;;;;5092911;28;20039;-79
2023/04/27 00:17:43;;;;;;;;;;;2.00;99.90;;;;;;5082815;28;19925;-79
2023/04/27 00:20:10;;;;;;;;;;;2.00;99.90;;;;;;5059608;28;19978;-79
2023/04/27 00:22:37;;;;;;;;;;;2.00;99.90;;;;;;5079407;28;20375;-79
2023/04/27 00:25:03;;;;;;;;;;;1.90;99.90;;;;;;5079951;28;19963;-79
2023/04/27 00:27:28;;;;;;;;;;;1.90;99.90;;;;;;5076020;28;20346;-79
2023/04/27 00:29:54;;;;;;;;;;;1.90;99.90;;;;;;5079932;28;19975;-79
2023/04/27 00:32:19;;;;;;;;;;;2.00;99.90;;;;;;5062238;28;20403;-79
2023/04/27 00:34:45;;;;;;;;;;;1.90;99.90;;;;;;5096628;28;19925;-79
2023/04/27 00:37:10;;;;;;;;;;;1.90;99.90;;;;;;5073432;28;19963;-79
2023/04/27 00:39:36;;;;;;;;;;;1.90;99.90;;;;;;5078810;28;19929;-79
2023/04/27 00:42:02;;;;;;;;;;;1.80;99.90;;;;;;5075141;28;19928;-79
2023/04/27 00:44:27;;;;;;;;;;;1.80;99.90;;;;;;5077734;28;19925;-79
2023/04/27 00:46:53;;;;;;;;;;;1.80;99.90;;;;;;5077012;28;19925;-80
2023/04/27 00:49:19;;;;;;;;;;;1.80;99.90;;;;;;5094480;28;19928;-79
2023/04/27 00:51:46;;;;;;;;;;;1.80;99.90;;;;;;5077560;28;20374;-79
2023/04/27 00:54:12;;;;;;;;;;;1.70;99.90;;;;;;5077261;28;19982;-79
2023/04/27 00:56:37;;;;;;;;;;;1.70;99.90;;;;;;5095162;28;20011;-79
2023/04/27 00:59:03;;;;;;;;;;;1.70;99.90;;;;;;5064198;28;20635;-79
2023/04/27 01:01:29;;;;;;;;;;;1.70;99.90;;;;;;5061036;28;20488;-79
2023/04/27 01:03:55;;;;;;;;;;;1.70;99.90;;;;;;5094448;28;19978;-79
2023/04/27 01:06:20;;;;;;;;;;;1.70;99.90;;;;;;5067608;28;19928;-79
2023/04/27 01:08:46;;;;;;;;;;;1.70;99.90;;;;;;5079859;28;19985;-79
2023/04/27 01:11:11;;;;;;;;;;;1.60;99.90;;;;;;5080278;28;19924;-79
2023/04/27 01:13:37;;;;;;;;;;;1.60;99.90;;;;;;5096199;28;19928;-79
2023/04/27 01:16:02;;;;;;;;;;;1.60;99.90;;;;;;5094929;28;19979;-79
2023/04/27 01:18:28;;;;;;;;;;;1.60;99.90;;;;;;5093572;28;19925;-79
2023/04/27 01:20:54;;;;;;;;;;;1.50;99.90;;;;;;5070483;28;19925;-79
2023/04/27 01:23:20;;;;;;;;;;;1.50;99.90;;;;;;5069342;28;19928;-79
2023/04/27 01:25:46;;;;;;;;;;;1.50;99.90;;;;;;5060752;28;19925;-79
2023/04/27 01:28:11;;;;;;;;;;;1.50;99.90;;;;;;5074802;28;20015;-79
2023/04/27 01:30:37;;;;;;;;;;;1.50;99.90;;;;;;5075547;28;19924;-79
2023/04/27 01:33:03;;;;;;;;;;;1.60;99.90;;;;;;5088621;28;19929;-79
2023/04/27 01:35:28;;;;;;;;;;;1.50;99.90;;;;;;5074571;28;19984;-79
2023/04/27 01:37:55;;;;;;;;;;;1.50;99.90;;;;;;5048183;28;19956;-79
2023/04/27 01:40:21;;;;;;;;;;;1.50;99.90;;;;;;5060453;28;19924;-79
2023/04/27 01:42:46;;;;;;;;;;;1.50;99.90;;;;;;5076853;28;20033;-79
2023/04/27 01:45:12;;;;;;;;;;;1.50;99.90;;;;;;5090188;28;20410;-79
2023/04/27 01:47:38;;;;;;;;;;;1.40;99.90;;;;;;5076494;28;20063;-79
2023/04/27 01:50:04;;;;;;;;;;;1.40;99.90;;;;;;5092206;28;20545;-79
2023/04/27 01:52:29;;;;;;;;;;;1.30;99.90;;;;;;5093480;28;20295;-79
2023/04/27 01:54:55;;;;;;;;;;;1.30;99.90;;;;;;5070239;28;19951;-78
2023/04/27 01:57:20;;;;;;;;;;;1.30;99.90;;;;;;5076613;28;19976;-79
2023/04/27 01:59:46;;;;;;;;;;;1.30;99.90;;;;;;5075975;28;19927;-79
2023/04/27 02:02:12;;;;;;;;;;;1.30;99.90;;;;;;5061714;28;19924;-78
2023/04/27 02:04:37;;;;;;;;;;;1.30;99.90;;;;;;5085632;28;19980;-79
2023/04/27 02:07:03;;;;;;;;;;;1.30;99.90;;;;;;5056211;28;19929;-79
2023/04/27 02:09:28;;;;;;;;;;;1.30;99.90;;;;;;5093984;28;19963;-79
2023/04/27 02:11:54;;;;;;;;;;;1.30;99.90;;;;;;5042002;28;19978;-79
2023/04/27 02:14:20;;;;;;;;;;;1.20;99.90;;;;;;5093844;28;19929;-79
2023/04/27 02:16:45;;;;;;;;;;;1.20;99.90;;;;;;5092785;28;19925;-79
2023/04/27 02:19:11;;;;;;;;;;;1.10;99.90;;;;;;5094124;28;20402;-79
2023/04/27 02:21:38;;;;;;;;;;;1.10;99.90;;;;;;5077222;28;19983;-79
2023/04/27 02:24:04;;;;;;;;;;;1.00;99.90;;;;;;5075162;28;20401;-78
2023/04/27 02:26:29;;;;;;;;;;;1.00;99.90;;;;;;5072099;28;19929;-78
2023/04/27 02:28:58;;;;;;;;;;;0.90;99.90;;;;;;5077387;28;19925;-78
2023/04/27 02:31:24;;;;;;;;;;;0.90;99.90;;;;;;5092990;28;19925;-78
2023/04/27 02:33:49;;;;;;;;;;;0.90;99.90;;;;;;5090351;28;19935;-79
2023/04/27 02:36:15;;;;;;;;;;;0.90;99.90;;;;;;5058889;28;20043;-79
2023/04/27 02:38:40;;;;;;;;;;;0.90;99.90;;;;;;5041102;28;19932;-79
2023/04/27 02:41:06;;;;;;;;;;;0.80;99.90;;;;;;5043171;28;19977;-79
2023/04/27 02:43:32;;;;;;;;;;;0.80;99.90;;;;;;5075093;28;19935;-79
2023/04/27 02:46:01;;;;;;;;;;;0.80;99.90;;;;;;5075643;28;19928;-79
2023/04/27 02:48:26;;;;;;;;;;;0.80;99.90;;;;;;5056931;28;19924;-79
2023/04/27 02:50:52;;;;;;;;;;;0.80;99.90;;;;;;5091213;28;20330;-79
2023/04/27 02:53:17;;;;;;;;;;;0.70;99.90;;;;;;5072462;28;19980;-79
2023/04/27 02:55:49;;;;;;;;;;;0.60;99.90;;;;;;5073966;28;19932;-78
2023/04/27 02:58:15;;;;;;;;;;;0.70;99.90;;;;;;5087974;28;20388;-79
2023/04/27 03:00:41;;;;;;;;;;;0.70;99.90;;;;;;5070778;28;19924;-78
2023/04/27 03:03:08;;;;;;;;;;;0.70;99.90;;;;;;5068498;28;19924;-79
2023/04/27 03:05:35;;;;;;;;;;;0.60;99.90;;;;;;5072417;28;19969;-78
2023/04/27 03:08:00;;;;;;;;;;;0.60;99.90;;;;;;5058007;28;19939;-78
2023/04/27 03:10:26;;;;;;;;;;;0.70;99.90;;;;;;5091736;28;19924;-78
2023/04/27 03:12:51;;;;;;;;;;;0.60;99.90;;;;;;5076623;28;19931;-79
2023/04/27 03:15:17;;;;;;;;;;;0.70;99.90;;;;;;5073954;28;19928;-78
2023/04/27 03:17:43;;;;;;;;;;;0.70;99.90;;;;;;5058508;28;19925;-78
2023/04/27 03:20:09;;;;;;;;;;;0.80;99.90;;;;;;5069095;28;20295;-78
2023/04/27 03:22:35;;;;;;;;;;;0.90;99.90;;;;;;5074289;28;20046;-78
2023/04/27 03:25:00;;;;;;;;;;;0.90;99.90;;;;;;5077876;28;20109;-79
2023/04/27 03:27:26;;;;;;;;;;;0.90;99.90;;;;;;5076118;28;19932;-78
2023/04/27 03:29:52;;;;;;;;;;;0.90;99.90;;;;;;5074420;28;20281;-78
2023/04/27 03:32:18;;;;;;;;;;;0.80;99.90;;;;;;5087975;28;20011;-78
2023/04/27 03:34:43;;;;;;;;;;;0.90;99.90;;;;;;5072181;28;19924;-78
2023/04/27 03:37:09;;;;;;;;;;;1.00;99.90;;;;;;5029713;28;19960;-78
2023/04/27 03:39:35;;;;;;;;;;;0.90;99.90;;;;;;5069535;28;19928;-79
2023/04/27 03:42:01;;;;;;;;;;;0.90;99.90;;;;;;5088849;28;19992;-78
2023/04/27 03:44:27;;;;;;;;;;;0.80;99.90;;;;;;5040745;28;19946;-78
2023/04/27 03:46:52;;;;;;;;;;;0.80;99.90;;;;;;5075631;28;19952;-79
2023/04/27 03:49:18;;;;;;;;;;;0.80;99.90;;;;;;5078728;28;19935;-78
2023/04/27 03:51:44;;;;;;;;;;;0.80;99.90;;;;;;5062517;28;19967;-78
2023/04/27 03:54:09;;;;;;;;;;;0.70;99.90;;;;;;5095658;28;20042;-79
2023/04/27 03:56:35;;;;;;;;;;;0.60;99.90;;;;;;5078656;28;19936;-79
2023/04/27 03:59:02;;;;;;;;;;;0.60;99.90;;;;;;5088528;28;19932;-78
2023/04/27 04:01:29;;;;;;;;;;;0.60;99.90;;;;;;5056144;28;19968;-78
2023/04/27 04:03:55;;;;;;;;;;;0.50;99.90;;;;;;5063005;28;19969;-79
2023/04/27 04:06:20;;;;;;;;;;;0.50;99.90;;;;;;5093193;28;19967;-79
2023/04/27 04:08:46;;;;;;;;;;;0.50;99.90;;;;;;5046328;28;20023;-78
2023/04/27 04:11:11;;;;;;;;;;;0.50;99.90;;;;;;5060905;28;19942;-78
2023/04/27 04:13:37;;;;;;;;;;;0.50;99.90;;;;;;5076174;28;19967;-79
2023/04/27 04:16:04;;;;;;;;;;;0.60;99.90;;;;;;5078621;28;19946;-79
2023/04/27 04:18:29;;;;;;;;;;;0.60;99.90;;;;;;5061024;28;19928;-79
2023/04/27 04:20:55;;;;;;;;;;;0.60;99.90;;;;;;5095972;28;19932;-79
2023/04/27 04:23:21;;;;;;;;;;;0.60;99.90;;;;;;5094309;28;19940;-79
2023/04/27 04:25:47;;;;;;;;;;;0.60;99.90;;;;;;5095158;28;19929;-79
2023/04/27 04:28:13;;;;;;;;;;;0.60;99.90;;;;;;5093811;28;19924;-79
2023/04/27 04:30:39;;;;;;;;;;;0.50;99.90;;;;;;5077506;28;19935;-79
2023/04/27 04:33:04;;;;;;;;;;;0.50;99.90;;;;;;5094282;28;20418;-79
2023/04/27 04:35:33;;;;;;;;;;;0.60;99.90;;;;;;5078204;28;19953;-79
2023/04/27 04:37:59;;;;;;;;;;;0.60;99.90;;;;;;5078101;28;20019;-78
2023/04/27 04:40:24;;;;;;;;;;;0.70;99.90;;;;;;5077464;28;19932;-79
2023/04/27 04:42:50;;;;;;;;;;;0.70;99.90;;;;;;5075489;28;20001;-79
2023/04/27 04:45:16;;;;;;;;;;;0.80;99.90;;;;;;5064387;28;19931;-78
2023/04/27 04:47:41;;;;;;;;;;;0.90;99.90;;;;;;5078018;28;19935;-78
2023/04/27 04:50:09;;;;;;;;;;;1.00;99.90;;;;;;5077172;28;19982;-79
2023/04/27 04:52:36;;;;;;;;;;;1.10;99.90;;;;;;5061074;28;19925;-79
2023/04/27 04:55:02;;;;;;;;;;;1.20;99.90;;;;;;5032330;28;19928;-79
2023/04/27 04:57:28;;;;;;;;;;;1.30;99.90;;;;;;5078837;28;20015;-79
2023/04/27 04:59:54;;;;;;;;;;;1.50;99.90;;;;;;5060583;28;19934;-79
2023/04/27 05:02:20;;;;;;;;;;;1.80;99.90;;;;;;5078381;28;19980;-79
2023/04/27 05:04:45;;;;;;;;;;;2.00;99.90;;;;;;5076366;28;19977;-79
2023/04/27 05:07:11;;;;;;;;;;;2.50;99.90;;;;;;5095651;28;19931;-79
2023/04/27 05:09:37;;;;;;;;;;;2.90;99.90;;;;;;5092233;28;19986;-79
2023/04/27 05:12:03;;;;;;;;;;;3.30;99.90;;;;;;5109573;28;19924;-79
2023/04/27 05:14:28;;;;;;;;;;;3.80;99.90;;;;;;5078600;28;19963;-79
2023/04/27 05:16:54;;;;;;;;;;;4.10;99.90;;;;;;5077019;28;19990;-79
2023/04/27 05:19:20;;;;;;;;;;;4.30;99.90;;;;;;5074033;28;19995;-79
2023/04/27 05:21:45;;;;;;;;;;;4.40;99.90;;;;;;5059666;28;19925;-79
2023/04/27 05:24:14;;;;;;;;;;;4.30;99.90;;;;;;5059908;28;19925;-79
2023/04/27 05:26:41;;;;;;;;;;;4.30;99.90;;;;;;5062735;28;19929;-79
2023/04/27 05:29:06;;;;;;;;;;;4.40;99.90;;;;;;5091807;28;19935;-79
2023/04/27 05:31:32;;;;;;;;;;;4.50;99.90;;;;;;5074267;28;19924;-79
2023/04/27 05:33:58;;;;;;;;;;;4.50;99.90;;;;;;5093066;28;19928;-79
2023/04/27 05:36:23;;;;;;;;;;;4.70;99.90;;;;;;5088774;28;20396;-79
2023/04/27 05:38:49;;;;;;;;;;;5.10;99.90;;;;;;5078143;28;19931;-79
2023/04/27 05:41:14;;;;;;;;;;;5.50;99.90;;;;;;5091597;28;19931;-79
2023/04/27 05:43:40;;;;;;;;;;;5.60;99.90;;;;;;5092020;28;19933;-79
2023/04/27 05:46:06;;;;;;;;;;;5.50;99.90;;;;;;5063750;28;19935;-79
2023/04/27 05:48:31;;;;;;;;;;;5.30;99.90;;;;;;5092056;28;19924;-79
2023/04/27 05:51:01;;;;;;;;;;;5.20;99.90;;;;;;5080252;28;19940;-79
2023/04/27 05:53:27;;;;;;;;;;;5.10;99.90;;;;;;5085417;28;19928;-79
2023/04/27 05:55:53;;;;;;;;;;;5.10;99.90;;;;;;5060962;28;20844;-79
2023/04/27 05:58:19;;;;;;;;;;;5.20;99.90;;;;;;5059754;28;19925;-79
2023/04/27 06:00:44;;;;;;;;;;;5.30;99.90;;;;;;5077582;28;19951;-79
2023/04/27 06:03:10;;;;;;;;;;;5.30;99.90;;;;;;5086096;28;19959;-79
2023/04/27 06:05:35;;;;;;;;;;;5.30;99.90;;;;;;5075418;28;19924;-79
2023/04/27 06:08:01;;;;;;;;;;;5.20;99.90;;;;;;5091847;28;19949;-79
2023/04/27 06:10:27;;;;;;;;;;;5.20;99.90;;;;;;5077066;28;19955;-79
2023/04/27 06:12:53;;;;;;;;;;;5.20;99.90;;;;;;5091890;28;20311;-79
2023/04/27 06:15:18;;;;;;;;;;;5.30;99.90;;;;;;5091410;28;19928;-79
2023/04/27 06:17:44;;;;;;;;;;;5.20;99.90;;;;;;5071748;28;19936;-79
2023/04/27 06:20:10;;;;;;;;;;;5.20;99.90;;;;;;5074716;28;19963;-79
2023/04/27 06:22:36;;;;;;;;;;;5.20;99.90;;;;;;5093541;28;19931;-79
2023/04/27 06:25:03;;;;;;;;;;;5.30;99.90;;;;;;5091954;28;20467;-76
2023/04/27 06:27:28;;;;;;;;;;;5.50;99.90;;;;;;5093743;28;19924;-76
2023/04/27 06:29:54;;;;;;;;;;;5.60;99.90;;;;;;5087144;28;19929;-76
2023/04/27 06:32:19;;;;;;;;;;;5.70;99.90;;;;;;5089811;28;19931;-76
2023/04/27 06:34:45;;;;;;;;;;;5.90;99.90;;;;;;5073387;28;20384;-76
2023/04/27 06:37:11;;;;;;;;;;;6.30;99.90;;;;;;5076027;28;19924;-76
2023/04/27 06:39:38;;;;;;;;;;;6.90;99.90;;;;;;5089456;28;19925;-76
2023/04/27 06:42:03;;;;;;;;;;;7.80;99.90;;;;;;5060771;28;20383;-76
2023/04/27 06:44:29;;;;;;;;;;;8.60;99.90;;;;;;5075170;28;19946;-76
2023/04/27 06:46:55;;;;;;;;;;;9.20;99.90;;;;;;5074154;28;19924;-76
2023/04/27 06:49:20;;;;;;;;;;;9.60;99.90;;;;;;5076557;28;19932;-76
2023/04/27 06:51:47;;;;;;;;;;;9.90;99.90;;;;;;5075657;28;19924;-76
2023/04/27 06:54:12;;;;;;;;;;;10.10;99.90;;;;;;5075085;28;20001;-76
2023/04/27 06:56:38;;;;;;;;;;;9.90;99.90;;;;;;5051496;28;20390;-76
2023/04/27 06:59:03;;;;;;;;;;;9.60;99.90;;;;;;5076434;28;19964;-76
2023/04/27 07:01:29;;;;;;;;;;;9.40;99.90;;;;;;5071606;28;19951;-76
2023/04/27 07:03:56;;;;;;;;;;;9.20;99.90;;;;;;5075910;28;19924;-76
2023/04/27 07:06:21;;;;;;;;;;;9.10;99.90;;;;;;5093830;28;19932;-76
2023/04/27 07:08:47;;;;;;;;;;;9.20;99.90;;;;;;5060305;28;19958;-76
2023/04/27 07:11:13;;;;;;;;;;;9.30;99.90;;;;;;5076333;28;19943;-76
2023/04/27 07:13:38;;;;;;;;;;;9.40;99.90;;;;;;5072396;28;19935;-76
2023/04/27 07:16:04;;;;;;;;;;;9.30;99.90;;;;;;5089346;28;19964;-76
2023/04/27 07:18:30;;;;;;;;;;;9.30;99.90;;;;;;5040515;28;19932;-76
2023/04/27 07:20:56;;;;;;;;;;;9.40;99.90;;;;;;5085937;28;19932;-78
2023/04/27 07:23:22;;;;;;;;;;;9.80;99.90;;;;;;5058848;28;19952;-77
2023/04/27 07:25:48;;;;;;;;;;;10.20;99.90;;;;;;5059963;28;19928;-77
2023/04/27 07:28:14;;;;;;;;;;;10.80;99.90;;;;;;5058119;28;19924;-77
2023/04/27 07:30:41;;;;;;;;;;;11.40;99.90;;;;;;5058286;28;19939;-77
2023/04/27 07:33:07;;;;;;;;;;;12.00;99.90;;;;;;5073882;28;20476;-77
2023/04/27 07:35:33;;;;;;;;;;;12.50;99.90;;;;;;5041226;28;19935;-77
2023/04/27 07:38:00;;;;;;;;;;;12.90;94.80;;;;;;5076079;28;19932;-78
2023/04/27 07:40:27;;;;;;;;;;;13.30;96.40;;;;;;5058460;28;19924;-78
2023/04/27 07:42:53;;;;;;;;;;;13.60;97.10;;;;;;5074788;28;19924;-78
2023/04/27 07:45:19;;;;;;;;;;;14.00;99.90;;;;;;5089072;28;19957;-77
2023/04/27 07:47:45;;;;;;;;;;;14.20;99.90;;;;;;5075836;28;19924;-77
2023/04/27 07:50:13;;;;;;;;;;;14.30;91.20;;;;;;5076423;28;19932;-77
2023/04/27 07:52:38;;;;;;;;;;;14.30;80.40;;;;;;5075729;28;19925;-78
2023/04/27 07:55:04;;;;;;;;;;;14.40;79.40;;;;;;5091744;28;19932;-78
2023/04/27 07:57:30;;;;;;;;;;;14.40;67.90;;;;;;5076110;28;20397;-78
2023/04/27 07:59:56;;;;;;;;;;;14.50;80.10;;;;;;5076376;28;19925;-78
2023/04/27 08:02:21;;;;;;;;;;;14.50;86.00;;;;;;5066402;28;19947;-79
2023/04/27 08:04:48;;;;;;;;;;;14.40;75.90;;;;;;5090623;28;19959;-78
2023/04/27 08:07:14;;;;;;;;;;;14.40;90.50;;;;;;5075430;28;19924;-78
2023/04/27 08:09:39;;;;;;;;;;;14.40;75.10;;;;;;5058478;28;20018;-78
2023/04/27 08:12:05;;;;;;;;;;;14.40;76.80;;;;;;5073099;28;19972;-80
2023/04/27 08:14:33;;;;;;;;;;;14.70;81.60;;;;;;5068933;28;20007;-79
2023/04/27 08:16:58;;;;;;;;;;;14.70;67.00;;;;;;5055524;28;20267;-79
2023/04/27 08:19:24;;;;;;;;;;;14.70;66.90;;;;;;5072250;28;19947;-79
2023/04/27 08:21:49;;;;;;;;;;;14.70;73.60;;;;;;5090222;28;19948;-79
2023/04/27 08:24:15;;;;;;;;;;;14.70;69.20;;;;;;5072212;28;19928;-79
2023/04/27 08:26:41;;;;;;;;;;;14.80;67.20;;;;;;5057437;28;19932;-79
2023/04/27 08:29:06;;;;;;;;;;;14.90;61.00;;;;;;5076133;28;19928;-80
2023/04/27 08:31:32;;;;;;;;;;;14.90;72.00;;;;;;5076617;28;20416;-79
2023/04/27 08:33:57;;;;;;;;;;;14.80;61.70;;;;;;5091631;28;20416;-80
2023/04/27 08:36:23;;;;;;;;;;;14.80;84.00;;;;;;5078155;28;19967;-79
2023/04/27 08:38:52;;;;;;;;;;;14.80;61.90;;;;;;5065082;28;19925;-79
2023/04/27 08:41:22;;;;;;;;;;;14.90;74.40;;;;;;5093545;28;19924;-79
2023/04/27 08:43:52;;;;;;;;;;;15.00;87.20;;;;;;5061041;28;19931;-80
2023/04/27 08:46:21;;;;;;;;;;;14.90;64.10;;;;;;5090580;28;19932;-80
2023/04/27 08:48:52;;;;;;;;;;;14.90;70.70;;;;;;5086670;28;19931;-80
2023/04/27 08:51:17;;;;;;;;;;;14.80;64.50;;;;;;5085933;28;20326;-80
2023/04/27 08:53:46;;;;;;;;;;;14.90;66.50;;;;;;5087852;28;19931;-80
2023/04/27 08:56:11;;;;;;;;;;;15.00;66.70;;;;;;5044279;28;19928;-79
2023/04/27 08:58:38;;;;;;;;;;;15.10;90.90;;;;;;5074709;28;19994;-80
2023/04/27 09:01:06;;;;;;;;;;;15.30;78.60;;;;;;5059115;28;20206;-76
2023/04/27 09:03:33;;;;;;;;;;;15.40;73.10;;;;;;5059007;28;19928;-80
2023/04/27 09:06:02;;;;;;;;;;;15.50;73.60;;;;;;5075095;28;20308;-80
2023/04/27 09:08:27;;;;;;;;;;;15.70;90.50;;;;;;5090519;28;20403;-80
2023/04/27 09:10:56;;;;;;;;;;;15.70;63.30;;;;;;5073749;28;19940;-80
2023/04/27 09:13:22;;;;;;;;;;;15.80;69.00;;;;;;5092779;28;19929;-79
2023/04/27 09:15:49;;;;;;;;;;;15.90;57.80;;;;;;5075587;28;19935;-80
2023/04/27 09:18:16;;;;;;;;;;;15.80;56.90;;;;;;5074068;28;19999;-80
2023/04/27 09:20:42;;;;;;;;;;;15.80;69.30;;;;;;5054593;28;19935;-80
2023/04/27 09:23:08;;;;;;;;;;;15.90;68.00;;;;;;5087735;28;20007;-80
2023/04/27 09:25:34;;;;;;;;;;;15.90;60.80;;;;;;5059764;28;19990;-80
2023/04/27 09:28:00;;;;;;;;;;;16.10;80.80;;;;;;5091174;28;19988;-80
2023/04/27 09:30:26;;;;;;;;;;;16.20;68.20;;;;;;5072719;28;20709;-80
2023/04/27 09:32:55;;;;;;;;;;;16.10;59.80;;;;;;5059883;28;20025;-79
2023/04/27 09:35:25;;;;;;;;;;;16.10;69.90;;;;;;5075069;28;20426;-79
2023/04/27 09:37:52;;;;;;;;;;;16.30;65.80;;;;;;5054783;28;19928;-80
2023/04/27 09:40:25;;;;;;;;;;;16.50;59.50;;;;;;5036950;28;20001;-79
2023/04/27 09:42:51;;;;;;;;;;;16.50;56.30;;;;;;5092481;28;19932;-83
2023/04/27 09:45:18;;;;;;;;;;;16.30;71.20;;;;;;5071190;28;19932;-80
2023/04/27 09:47:44;;;;;;;;;;;16.30;65.20;;;;;;5076865;28;20207;-80
2023/04/27 09:50:11;;;;;;;;;;;16.30;66.10;;;;;;5075255;28;19925;-79
2023/04/27 09:52:37;;;;;;;;;;;16.30;61.60;;;;;;5092952;28;19928;-82
2023/04/27 09:55:04;;;;;;;;;;;16.30;60.50;;;;;;5075226;28;20426;-80
2023/04/27 09:57:35;;;;;;;;;;;16.30;58.10;;;;;;5060048;28;19925;-80
2023/04/27 10:00:23;;;;;;;;;;;16.40;59.70;;;;;;5076141;28;19938;-79
2023/04/27 10:02:54;;;;;;;;;;;16.60;67.90;;;;;;5050272;28;19933;-79
2023/04/27 10:05:35;;;;;;;;;;;17.10;64.70;;;;;;5059667;28;19924;-79
2023/04/27 10:08:02;;;;;;;;;;;17.40;65.40;;;;;;5094897;28;19928;-80
2023/04/27 10:10:28;;;;;;;;;;;17.70;63.90;;;;;;5075241;28;19977;-80
2023/04/27 10:12:59;;;;;;;;;;;17.50;57.70;;;;;;5043578;28;19970;-80
2023/04/27 10:15:26;;;;;;;;;;;17.20;57.70;;;;;;5092046;28;19990;-79
2023/04/27 10:17:53;;;;;;;;;;;17.00;71.90;;;;;;5093663;28;19925;-80
2023/04/27 10:20:32;;;;;;;;;;;16.40;53.50;;;;;;5076994;28;19934;-80
2023/04/27 10:22:59;;;;;;;;;;;16.20;57.80;;;;;;5089880;28;19924;-80
2023/04/27 10:25:28;;;;;;;;;;;15.90;60.30;;;;;;5074256;28;19971;-80
2023/04/27 10:27:55;;;;;;;;;;;15.80;68.20;;;;;;5093403;28;19925;-80
2023/04/27 10:30:22;;;;;;;;;;;15.80;68.10;;;;;;5094247;28;20449;-80
2023/04/27 10:32:50;;;;;;;;;;;15.70;66.50;;;;;;5058226;28;19989;-80
2023/04/27 10:35:16;;;;;;;;;;;15.60;58.50;;;;;;5075015;28;19928;-80
2023/04/27 10:37:42;;;;;;;;;;;15.60;64.00;;;;;;5060681;28;19928;-80
2023/04/27 10:40:09;;;;;;;;;;;15.70;63.00;;;;;;5060181;28;19946;-80
2023/04/27 10:42:34;;;;;;;;;;;15.70;66.20;;;;;;5059606;28;19925;-79
2023/04/27 10:45:01;;;;;;;;;;;15.70;66.70;;;;;;5088412;28;19935;-81
2023/04/27 10:47:39;;;;;;;;;;;15.80;60.50;;;;;;5089862;28;19987;-81
2023/04/27 10:50:06;;;;;;;;;;;15.80;59.70;;;;;;5058673;28;19924;-80
2023/04/27 10:52:32;;;;;;;;;;;15.70;56.50;;;;;;5072574;28;19924;-79
2023/04/27 10:55:03;;;;;;;;;;;15.50;60.60;;;;;;5083957;28;19931;-79
2023/04/27 10:57:28;;;;;;;;;;;15.30;60.80;;;;;;5093883;28;19947;-80
2023/04/27 10:59:54;;;;;;;;;;;15.30;62.90;;;;;;5077193;28;20391;-79
2023/04/27 11:02:27;;;;;;;;;;;15.40;62.90;;;;;;5075074;28;19931;-80
2023/04/27 11:04:53;;;;;;;;;;;15.50;62.90;;;;;;5057484;28;19925;-79
2023/04/27 11:07:26;;;;;;;;;;;15.60;62.70;;;;;;5079984;28;19935;-79
2023/04/27 11:09:52;;;;;;;;;;;15.70;62.50;;;;;;5065253;28;19925;-80
2023/04/27 11:12:17;;;;;;;;;;;15.50;63.40;;;;;;5074820;28;19946;-80
2023/04/27 11:14:43;;;;;;;;;;;15.60;64.00;;;;;;5073624;28;19931;-80
2023/04/27 11:17:08;;;;;;;;;;;15.50;59.30;;;;;;5070603;28;19931;-79
2023/04/27 11:19:45;;;;;;;;;;;15.50;63.60;;;;;;5073549;28;19924;-80
2023/04/27 11:22:11;;;;;;;;;;;15.40;62.20;;;;;;5060614;28;19982;-79
2023/04/27 11:24:44;;;;;;;;;;;15.40;65.70;;;;;;5073833;28;19925;-80
2023/04/27 11:27:10;;;;;;;;;;;15.40;62.80;;;;;;5090739;28;20384;-79
2023/04/27 11:29:39;;;;;;;;;;;15.40;61.70;;;;;;5060150;28;19947;-79
2023/04/27 11:32:04;;;;;;;;;;;15.20;62.00;;;;;;5075872;28;19925;-79
2023/04/27 11:34:35;;;;;;;;;;;15.00;58.50;;;;;;5092080;28;19979;-79
2023/04/27 11:37:02;;;;;;;;;;;14.90;58.40;;;;;;5057775;28;19933;-79
2023/04/27 11:39:32;;;;;;;;;;;14.90;62.00;;;;;;5075509;28;19931;-79
2023/04/27 11:42:13;;;;;;;;;;;15.20;63.20;;;;;;5075896;28;19928;-79
2023/04/27 11:44:39;;;;;;;;;;;15.20;59.70;;;;;;5092287;28;20292;-79
2023/04/27 11:47:05;;;;;;;;;;;15.40;62.20;;;;;;5071739;28;20599;-80
2023/04/27 11:49:31;;;;;;;;;;;15.70;62.20;;;;;;5058951;28;19936;-79
2023/04/27 11:51:57;;;;;;;;;;;15.80;61.80;;;;;;5050598;28;20414;-80
2023/04/27 11:54:27;;;;;;;;;;;15.80;53.90;;;;;;5079382;28;19975;-80
2023/04/27 11:57:02;;;;;;;;;;;15.80;56.40;;;;;;5058653;28;19931;-80
2023/04/27 11:59:28;;;;;;;;;;;15.90;55.40;;;;;;5073423;28;19925;-80
2023/04/27 12:01:53;;;;;;;;;;;16.00;61.50;;;;;;5076833;28;19935;-81
2023/04/27 12:04:19;;;;;;;;;;;16.10;59.20;;;;;;5044615;28;19925;-79
2023/04/27 12:06:45;;;;;;;;;;;16.20;58.90;;;;;;5077432;28;20306;-80
2023/04/27 12:09:10;;;;;;;;;;;16.30;56.20;;;;;;5095212;28;19981;-80
2023/04/27 12:11:36;;;;;;;;;;;16.20;53.80;;;;;;5080041;28;20271;-80
2023/04/27 12:14:02;;;;;;;;;;;16.20;52.20;;;;;;5077426;28;19925;-79
2023/04/27 12:16:28;;;;;;;;;;;16.10;55.30;;;;;;5078232;28;19974;-79
2023/04/27 12:18:53;;;;;;;;;;;15.80;54.90;;;;;;5092392;28;19924;-82
2023/04/27 12:21:20;;;;;;;;;;;15.70;59.10;;;;;;5075540;28;19971;-82
2023/04/27 12:23:45;;;;;;;;;;;15.80;61.00;;;;;;5096274;28;19924;-82
2023/04/27 12:26:12;;;;;;;;;;;16.00;59.10;;;;;;5060565;28;20032;-81
2023/04/27 12:28:38;;;;;;;;;;;16.20;62.10;;;;;;5087360;28;19928;-82
2023/04/27 12:31:04;;;;;;;;;;;16.40;60.60;;;;;;5075252;28;20179;-83
2023/04/27 12:33:30;;;;;;;;;;;16.50;55.60;;;;;;5079129;28;20389;-83
2023/04/27 12:35:56;;;;;;;;;;;16.30;57.10;;;;;;5041641;28;19929;-82
2023/04/27 12:38:22;;;;;;;;;;;16.20;57.00;;;;;;5085487;28;20394;-83
2023/04/27 12:40:47;;;;;;;;;;;16.20;57.50;;;;;;5087824;28;19928;-86
2023/04/27 12:43:13;;;;;;;;;;;16.30;52.90;;;;;;5059958;28;19951;-82
2023/04/27 12:45:39;;;;;;;;;;;16.30;57.40;;;;;;5078314;28;19929;-83
2023/04/27 12:48:05;;;;;;;;;;;16.30;54.10;;;;;;5061608;28;19925;-82
2023/04/27 12:50:30;;;;;;;;;;;15.90;57.70;;;;;;5088593;28;20005;-82
2023/04/27 12:52:56;;;;;;;;;;;15.70;58.60;;;;;;5072935;28;19924;-82
2023/04/27 12:55:22;;;;;;;;;;;15.30;53.60;;;;;;5062241;28;19931;-83
2023/04/27 12:57:47;;;;;;;;;;;15.00;53.00;;;;;;5077076;28;19928;-82
2023/04/27 13:00:14;;;;;;;;;;;14.70;54.30;;;;;;5046061;28;19924;-83
2023/04/27 13:02:40;;;;;;;;;;;14.50;56.00;;;;;;5095894;28;19936;-82
2023/04/27 13:05:06;;;;;;;;;;;14.30;58.40;;;;;;5078413;28;20427;-82
2023/04/27 13:07:32;;;;;;;;;;;14.20;56.40;;;;;;5079243;28;19935;-82
2023/04/27 13:09:58;;;;;;;;;;;14.10;55.50;;;;;;5077523;28;19979;-82
2023/04/27 13:12:23;;;;;;;;;;;14.20;57.30;;;;;;5062117;28;19940;-83
2023/04/27 13:14:49;;;;;;;;;;;14.20;58.20;;;;;;5096049;28;20379;-83
2023/04/27 13:17:14;;;;;;;;;;;14.20;57.40;;;;;;5078384;28;20399;-82
2023/04/27 13:19:40;;;;;;;;;;;14.20;59.80;;;;;;5061771;28;19970;-82
2023/04/27 13:22:08;;;;;;;;;;;14.20;60.40;;;;;;5094114;28;19971;-84
2023/04/27 13:24:34;;;;;;;;;;;14.30;59.90;;;;;;5079154;28;20502;-82
2023/04/27 13:27:00;;;;;;;;;;;14.30;63.20;;;;;;5078132;28;19924;-82
2023/04/27 13:29:26;;;;;;;;;;;14.20;58.90;;;;;;5041959;28;19932;-84
2023/04/27 13:31:51;;;;;;;;;;;14.10;57.90;;;;;;5087358;28;19932;-83
2023/04/27 13:34:17;;;;;;;;;;;14.10;59.50;;;;;;5060362;28;20398;-84
2023/04/27 13:36:43;;;;;;;;;;;14.10;59.40;;;;;;5095202;28;19924;-83
2023/04/27 13:39:09;;;;;;;;;;;14.10;60.30;;;;;;5078285;28;19954;-84
2023/04/27 13:41:34;;;;;;;;;;;14.10;59.60;;;;;;5078540;28;20561;-82
2023/04/27 13:44:00;;;;;;;;;;;14.10;58.40;;;;;;5078143;28;19963;-83
2023/04/27 13:46:26;;;;;;;;;;;14.10;59.20;;;;;;5092789;28;19924;-84
2023/04/27 13:48:52;;;;;;;;;;;14.00;58.50;;;;;;5078080;28;19983;-82
2023/04/27 13:51:17;;;;;;;;;;;13.90;59.00;;;;;;5078275;28;19930;-83
2023/04/27 13:53:43;;;;;;;;;;;13.70;58.40;;;;;;5077806;28;20614;-83
2023/04/27 13:56:09;;;;;;;;;;;13.60;59.80;;;;;;5061493;28;20353;-83
2023/04/27 13:58:35;;;;;;;;;;;13.60;57.60;;;;;;5076834;28;19956;-82
2023/04/27 14:01:01;;;;;;;;;;;13.50;56.10;;;;;;5077100;28;19987;-83
2023/04/27 14:03:28;;;;;;;;;;;13.50;58.90;;;;;;5077599;28;19932;-83
2023/04/27 14:05:53;;;;;;;;;;;13.60;59.00;;;;;;5094044;28;19924;-83
2023/04/27 14:08:19;;;;;;;;;;;13.70;57.90;;;;;;5094773;28;19924;-83
2023/04/27 14:10:45;;;;;;;;;;;13.80;59.50;;;;;;5093258;28;20276;-82
2023/04/27 14:13:11;;;;;;;;;;;14.00;58.10;;;;;;5060229;28;19975;-83
2023/04/27 14:15:36;;;;;;;;;;;14.10;57.70;;;;;;5061128;28;19925;-83
2023/04/27 14:18:03;;;;;;;;;;;14.00;57.40;;;;;;5072252;28;20383;-79